Time;durP1;ratioP1;P1;durP2;ratioP2;P2;SDS_P1;SDS_P2;PMS_P1;PMS_P2;Temp;Humidity;BMP_temperature;BMP_pressure;BME280_temperature;BME280_humidity;BME280_pressure;Samples;Min_cycle;Max_cycle;Signal;HPM_P1;HPM_P2
2022/11/27 00:00:44;;;;;;;30.10;18.10;;;;;;;7.76;68.42;100987.53;7793690;32;39790;-84
2022/11/27 00:05:00;;;;;;;32.25;17.95;;;;;;;8.05;66.96;100982.44;7793505;32;38463;-84
2022/11/27 00:09:16;;;;;;;29.50;17.48;;;;;;;8.15;66.61;100980.00;7793483;32;37262;-84
2022/11/27 00:13:32;;;;;;;28.60;17.15;;;;;;;8.16;66.35;100978.97;7793515;32;40249;-84
2022/11/27 00:17:49;;;;;;;33.08;17.37;;;;;;;8.13;66.63;100973.16;7774124;32;39973;-84
2022/11/27 00:22:05;;;;;;;30.35;16.27;;;;;;;7.90;67.07;100977.38;7766539;32;36787;-84
2022/11/27 00:26:21;;;;;;;29.83;16.30;;;;;;;7.89;67.00;100976.53;7766154;32;37997;-84
2022/11/27 00:30:38;;;;;;;29.75;16.75;;;;;;;7.97;66.60;100978.12;7766095;32;39868;-84
2022/11/27 00:34:54;;;;;;;29.25;16.55;;;;;;;7.84;66.78;100978.28;7752201;32;40143;-84
2022/11/27 00:39:11;;;;;;;28.48;16.55;;;;;;;7.98;66.22;100984.38;7765777;32;38829;-84
2022/11/27 00:43:27;;;;;;;27.05;16.00;;;;;;;8.11;65.56;100970.66;7765938;32;37210;-84
2022/11/27 00:47:43;;;;;;;33.40;16.45;;;;;;;7.72;66.51;100973.56;7765232;32;39196;-84
2022/11/27 00:52:00;;;;;;;30.50;16.55;;;;;;;7.81;66.08;100965.13;7766087;32;38647;-84
2022/11/27 00:56:19;;;;;;;28.08;15.70;;;;;;;7.99;65.62;100961.63;7751624;32;38035;-84
2022/11/27 01:00:35;;;;;;;28.65;15.85;;;;;;;7.95;65.34;100965.81;7765780;32;37361;-84
2022/11/27 01:04:51;;;;;;;25.73;15.82;;;;;;;7.61;66.26;100965.34;7765749;32;39507;-84
2022/11/27 01:09:09;;;;;;;27.52;16.02;;;;;;;7.82;65.63;100972.25;7765584;32;40718;-84
2022/11/27 01:13:30;;;;;;;31.20;16.62;;;;;;;7.82;65.64;100967.62;7765269;32;37879;-85
2022/11/27 01:17:46;;;;;;;27.35;16.37;;;;;;;7.64;66.01;100970.31;7765658;32;37286;-84
2022/11/27 01:22:03;;;;;;;27.90;15.32;;;;;;;7.67;65.79;100975.28;7765536;32;40037;-84
2022/11/27 01:26:20;;;;;;;27.62;16.45;;;;;;;7.47;66.05;100970.91;7765455;32;39936;-84
2022/11/27 01:30:39;;;;;;;30.62;17.00;;;;;;;7.56;65.69;100976.03;7765260;32;38042;-84
2022/11/27 01:34:55;;;;;;;27.77;16.48;;;;;;;7.47;66.11;100981.75;7765462;32;36115;-83
2022/11/27 01:39:20;;;;;;;27.80;16.00;;;;;;;7.07;67.89;100981.22;7765320;32;39104;-84
2022/11/27 01:43:40;;;;;;;31.35;16.20;;;;;;;7.36;66.96;100971.59;7751202;32;38843;-84
2022/11/27 01:48:01;;;;;;;28.05;15.13;;;;;;;7.44;66.99;100971.31;7765108;32;38778;-85
2022/11/27 01:52:34;;;;;;;29.33;16.67;;;;;;;7.10;68.19;100975.34;7751487;32;37133;-84
2022/11/27 01:56:55;;;;;;;31.47;16.93;;;;;;;7.34;67.41;100973.72;7751645;32;40007;-85
2022/11/27 02:01:11;;;;;;;26.15;15.63;;;;;;;7.54;66.55;100987.13;7750752;32;40687;-84
2022/11/27 02:05:27;;;;;;;25.67;15.23;;;;;;;7.62;66.36;100995.00;7764956;32;37931;-85
2022/11/27 02:09:44;;;;;;;24.50;14.73;;;;;;;6.95;68.31;101005.47;7765008;32;37077;-84
2022/11/27 02:14:12;;;;;;;28.00;15.07;;;;;;;7.30;67.15;100996.91;7764448;32;39315;-84
2022/11/27 02:19:06;;;;;;;27.02;14.90;;;;;;;7.19;67.37;100994.91;7751612;32;39978;-84
2022/11/27 02:23:51;;;;;;;26.42;15.05;;;;;;;7.01;67.79;100996.50;7764504;32;37915;-84
2022/11/27 02:28:27;;;;;;;24.25;15.77;;;;;;;7.04;67.51;100990.63;7750401;32;37904;-84
2022/11/27 02:33:00;;;;;;;31.98;15.90;;;;;;;7.17;66.95;100984.28;7751681;32;39265;-84
2022/11/27 02:37:35;;;;;;;26.90;15.57;;;;;;;7.11;67.03;100994.13;7737065;32;39961;-84
2022/11/27 02:41:59;;;;;;;27.20;14.73;;;;;;;7.21;66.62;101003.66;7723816;32;37634;-84
2022/11/27 02:46:17;;;;;;;28.35;15.60;;;;;;;7.13;67.02;101002.87;7743022;32;37859;-84
2022/11/27 02:50:35;;;;;;;28.38;16.25;;;;;;;6.92;67.65;101004.06;7750930;32;39653;-84
2022/11/27 02:54:56;;;;;;;25.73;14.18;;;;;;;6.93;68.12;101008.44;7737497;32;39799;-84
2022/11/27 02:59:13;;;;;;;27.80;16.08;;;;;;;7.22;67.17;101010.75;7750933;32;38723;-84
2022/11/27 03:03:35;;;;;;;24.92;15.05;;;;;;;6.96;67.94;101009.87;7750543;32;35301;-83
2022/11/27 03:08:15;;;;;;;28.08;15.60;;;;;;;7.29;67.28;101006.09;7742048;32;39342;-84
2022/11/27 03:12:31;;;;;;;33.63;15.73;;;;;;;6.86;68.50;101023.06;7751892;32;39898;-84
2022/11/27 03:17:16;;;;;;;28.17;15.70;;;;;;;7.09;67.76;101023.34;7763484;32;39127;-84
2022/11/27 03:21:37;;;;;;;27.13;16.50;;;;;;;7.06;68.05;101029.19;7751807;32;37768;-84
2022/11/27 03:25:54;;;;;;;24.83;15.00;;;;;;;7.08;68.00;101024.38;7749756;32;39444;-84
2022/11/27 03:30:11;;;;;;;30.33;16.20;;;;;;;7.50;66.71;101024.72;7763171;32;40834;-84
2022/11/27 03:34:28;;;;;;;29.37;17.10;;;;;;;7.54;66.33;101019.69;7762845;32;37999;-84
2022/11/27 03:38:45;;;;;;;26.40;16.30;;;;;;;7.24;67.04;101023.03;7762643;32;36831;-84
2022/11/27 03:43:13;;;;;;;28.05;16.15;;;;;;;7.22;67.18;101025.12;7749538;32;39120;-84
2022/11/27 03:47:51;;;;;;;28.98;16.83;;;;;;;7.14;67.71;101020.81;7749319;32;40701;-84
2022/11/27 03:52:19;;;;;;;28.75;17.25;;;;;;;7.17;67.53;101024.13;7762611;32;37901;-84
2022/11/27 03:57:05;;;;;;;30.98;17.45;;;;;;;7.27;67.23;101021.78;7737082;32;37289;-84
2022/11/27 04:01:25;;;;;;;29.35;16.73;;;;;;;7.25;67.40;101018.44;7761786;32;39191;-84
2022/11/27 04:05:41;;;;;;;32.40;17.30;;;;;;;7.11;67.87;101018.53;7748736;32;40831;-84
2022/11/27 04:09:57;;;;;;;28.92;16.08;;;;;;;6.94;68.13;101011.97;7762267;32;38075;-84
2022/11/27 04:14:14;;;;;;;29.25;17.30;;;;;;;7.32;67.28;101014.62;7761965;32;37226;-84
2022/11/27 04:18:30;;;;;;;28.17;16.65;;;;;;;7.36;66.80;101017.72;7748484;32;38876;-84
2022/11/27 04:22:46;;;;;;;30.45;15.95;;;;;;;7.14;67.44;101018.09;7762514;32;40871;-84
2022/11/27 04:27:03;;;;;;;32.63;18.08;;;;;;;7.38;66.91;101018.34;7765186;32;38728;-84
2022/11/27 04:31:19;;;;;;;29.05;17.67;;;;;;;7.11;67.43;101021.25;7765991;32;37076;-84
2022/11/27 04:35:35;;;;;;;33.13;18.05;;;;;;;7.12;67.40;101025.62;7765723;32;39210;-82
2022/11/27 04:39:51;;;;;;;34.25;18.70;;;;;;;7.33;66.77;101016.28;7738941;32;39739;-84
2022/11/27 04:44:07;;;;;;;34.25;17.48;;;;;;;7.07;67.68;101016.47;7741802;32;38118;-84
2022/11/27 04:48:24;;;;;;;37.03;18.55;;;;;;;7.15;67.22;101008.91;7765883;32;37188;-84
2022/11/27 04:52:40;;;;;;;34.72;19.05;;;;;;;6.94;68.00;101009.25;7765748;32;39278;-84
2022/11/27 04:56:56;;;;;;;35.28;18.23;;;;;;;6.89;68.19;101006.37;7764936;32;40737;-84
2022/11/27 05:01:13;;;;;;;35.72;19.23;;;;;;;6.75;68.94;101011.03;7765690;32;37947;-84
2022/11/27 05:05:29;;;;;;;43.83;20.85;;;;;;;6.86;68.49;100995.94;7766016;32;36382;-85
2022/11/27 05:09:45;;;;;;;44.85;20.27;;;;;;;6.89;68.40;101006.37;7765631;32;39405;-84
2022/11/27 05:14:14;;;;;;;39.78;20.17;;;;;;;7.13;67.70;101002.87;7765214;32;40030;-84
2022/11/27 05:18:30;;;;;;;41.08;19.17;;;;;;;7.00;68.02;101002.94;7753137;32;37550;-83
2022/11/27 05:22:48;;;;;;;42.53;20.88;;;;;;;7.03;67.73;101001.69;7765324;32;37981;-84
2022/11/27 05:27:04;;;;;;;38.40;19.62;;;;;;;7.20;67.60;101002.00;7751627;32;40045;-84
2022/11/27 05:31:21;;;;;;;43.45;20.73;;;;;;;7.40;66.77;100991.84;7765384;32;40780;-84
2022/11/27 05:35:37;;;;;;;41.45;20.12;;;;;;;6.48;70.17;101007.63;7764942;32;37876;-84
2022/11/27 05:39:53;;;;;;;48.55;20.33;;;;;;;6.98;68.42;101007.75;7765216;32;37946;-85
2022/11/27 05:44:14;;;;;;;37.92;19.00;;;;;;;6.80;69.06;101004.97;7764816;32;40505;-84
2022/11/27 05:48:30;;;;;;;49.13;20.62;;;;;;;7.29;67.24;101006.09;7764350;32;39605;-84
2022/11/27 05:52:46;;;;;;;50.03;20.45;;;;;;;6.96;68.54;101004.44;7765123;32;37859;-85
2022/11/27 05:57:02;;;;;;;50.88;21.62;;;;;;;6.86;68.21;101009.50;7764876;32;37185;-86
2022/11/27 06:01:19;;;;;;;57.15;22.35;;;;;;;6.87;68.43;101009.28;7765138;32;39219;-84
2022/11/27 06:05:39;;;;;;;64.62;22.08;;;;;;;6.64;69.27;101015.25;7764783;32;40207;-85
2022/11/27 06:09:55;;;;;;;53.45;22.23;;;;;;;6.80;69.05;101019.34;7765200;32;38409;-85
2022/11/27 06:14:11;;;;;;;61.63;22.77;;;;;;;6.68;69.36;101016.50;7764329;32;37160;-82
2022/11/27 06:18:27;;;;;;;47.35;21.02;;;;;;;6.85;69.16;101016.81;7765200;32;39902;-85
2022/11/27 06:22:44;;;;;;;49.03;20.70;;;;;;;7.29;67.26;101019.66;7764566;32;40051;-85
2022/11/27 06:27:00;;;;;;;68.55;22.27;;;;;;;6.81;69.27;101026.41;7764623;32;36888;-86
2022/11/27 06:31:20;;;;;;;45.22;20.95;;;;;;;7.12;68.56;101017.50;7764606;32;38048;-85
2022/11/27 06:35:36;;;;;;;58.97;21.40;;;;;;;7.23;67.74;101018.66;7764670;32;39156;-84
2022/11/27 06:39:52;;;;;;;42.85;20.52;;;;;;;7.03;68.81;101017.97;7763716;32;40181;-85
2022/11/27 06:44:09;;;;;;;98.37;23.52;;;;;;;6.99;69.04;101027.59;7750744;32;38625;-86
2022/11/27 06:48:26;;;;;;;48.83;21.73;;;;;;;7.00;69.29;101035.47;7744269;32;37317;-84
2022/11/27 06:52:42;;;;;;;41.22;19.00;;;;;;;6.92;69.69;101033.06;7764382;32;39269;-85
2022/11/27 06:56:58;;;;;;;39.40;19.05;;;;;;;7.23;68.93;101023.28;7764297;32;39978;-84
2022/11/27 07:01:16;;;;;;;35.72;18.33;;;;;;;7.19;68.87;101019.31;7763247;32;38855;-84
2022/11/27 07:05:32;;;;;;;43.05;17.62;;;;;;;7.09;69.12;101027.94;7762926;32;37178;-84
2022/11/27 07:09:48;;;;;;;32.47;16.20;;;;;;;7.30;68.40;101018.62;7759435;32;39785;-85
2022/11/27 07:14:05;;;;;;;40.12;16.83;;;;;;;7.34;67.96;101027.97;7761027;32;40496;-87
2022/11/27 07:18:21;;;;;;;30.58;15.68;;;;;;;7.49;67.32;101025.75;7760959;32;38695;-86
2022/11/27 07:22:38;;;;;;;30.08;14.95;;;;;;;7.22;67.15;101027.00;7749275;32;37868;-86
2022/11/27 07:26:54;;;;;;;32.30;14.70;;;;;;;7.22;67.01;101037.88;7763723;32;39806;-87
2022/11/27 07:31:12;;;;;;;34.33;15.80;;;;;;;7.38;66.83;101037.34;7763285;32;39881;-83
2022/11/27 07:35:28;;;;;;;28.25;13.98;;;;;;;7.41;66.21;101033.34;7763420;32;37954;-84
2022/11/27 07:39:45;;;;;;;32.17;14.80;;;;;;;7.51;65.80;101036.41;7734709;32;37279;-84
2022/11/27 07:44:18;;;;;;;35.55;15.07;;;;;;;7.06;67.39;101044.66;7735987;32;39799;-86
2022/11/27 07:48:34;;;;;;;30.12;14.30;;;;;;;7.58;65.45;101025.50;7735780;32;39915;-85
2022/11/27 07:52:50;;;;;;;32.20;13.90;;;;;;;7.57;64.93;101035.53;7735827;32;37972;-85
2022/11/27 07:57:07;;;;;;;31.87;13.82;;;;;;;7.57;64.89;101031.97;7735977;32;37946;-85
2022/11/27 08:01:23;;;;;;;30.40;14.93;;;;;;;7.51;64.70;101037.22;7739234;32;39244;-86
2022/11/27 08:05:39;;;;;;;32.83;14.90;;;;;;;7.55;65.04;101037.63;7738262;32;40794;-88
2022/11/27 08:09:57;;;;;;;28.80;14.77;;;;;;;7.66;64.79;101044.22;7739220;32;37993;-75
2022/11/27 08:14:13;;;;;;;28.20;13.98;;;;;;;7.85;65.72;101039.66;7739465;32;37169;-85
2022/11/27 08:18:29;;;;;;;32.30;14.40;;;;;;;7.41;65.72;101046.91;7739355;32;39574;-86
2022/11/27 08:22:46;;;;;;;31.65;14.10;;;;;;;7.31;66.24;101050.97;7739362;32;40548;-87
2022/11/27 08:27:02;;;;;;;33.15;15.23;;;;;;;7.89;64.04;101059.88;7738361;32;37859;-86
2022/11/27 08:31:21;;;;;;;33.15;14.60;;;;;;;7.88;63.39;101061.78;7739255;32;37474;-87
2022/11/27 08:35:38;;;;;;;35.80;16.73;;;;;;;7.85;63.50;101056.78;7739375;32;39905;-87
2022/11/27 08:39:54;;;;;;;39.70;16.42;;;;;;;7.81;63.46;101066.44;7764042;32;40845;-86
2022/11/27 08:44:11;;;;;;;39.92;18.42;;;;;;;7.45;65.17;101067.97;7765495;32;37926;-87
2022/11/27 08:48:27;;;;;;;34.67;17.10;;;;;;;7.81;63.63;101060.16;7751166;32;37155;-87
2022/11/27 08:52:43;;;;;;;33.03;15.52;;;;;;;7.99;63.33;101072.97;7751966;32;39272;-86
2022/11/27 08:56:59;;;;;;;32.28;15.45;;;;;;;7.93;63.95;101068.41;7765662;32;40595;-87
2022/11/27 09:01:30;;;;;;;32.90;15.48;;;;;;;7.99;63.93;101073.78;7765606;32;37789;-87
2022/11/27 09:05:47;;;;;;;35.45;15.27;;;;;;;7.73;64.86;101083.00;7765291;32;37985;-86
2022/11/27 09:10:03;;;;;;;32.53;14.77;;;;;;;7.87;64.69;101081.00;7765186;32;39041;-88
2022/11/27 09:14:20;;;;;;;32.33;15.88;;;;;;;8.14;64.05;101084.31;7765249;32;39537;-89
2022/11/27 09:18:36;;;;;;;37.38;17.30;;;;;;;8.22;64.86;101086.72;7765342;32;38655;-88
2022/11/27 09:22:52;;;;;;;34.75;16.12;;;;;;;8.13;64.52;101079.91;7765600;32;37375;-86
2022/11/27 09:27:09;;;;;;;34.85;15.43;;;;;;;8.00;64.77;101077.31;7765492;32;40032;-87
2022/11/27 09:31:26;;;;;;;39.70;16.98;;;;;;;7.78;65.38;101076.88;7765326;32;40776;-88
2022/11/27 09:35:42;;;;;;;40.53;16.80;;;;;;;7.92;64.97;101073.03;7764878;32;38618;-87
2022/11/27 09:39:58;;;;;;;35.78;16.23;;;;;;;8.27;63.80;101072.47;7751418;32;37203;-81
2022/11/27 09:44:38;;;;;;;37.00;16.80;;;;;;;8.12;64.31;101075.53;7765306;32;39415;-85
2022/11/27 09:48:56;;;;;;;32.00;16.17;;;;;;;8.17;64.04;101070.25;7752393;32;40131;-84
2022/11/27 09:53:38;;;;;;;41.05;18.87;;;;;;;7.70;65.16;101069.88;7751265;32;37914;-84
2022/11/27 09:58:17;;;;;;;43.53;19.55;;;;;;;8.06;63.90;101065.56;7752092;32;37238;-84
2022/11/27 10:02:33;;;;;;;38.30;16.42;;;;;;;7.84;64.67;101057.81;7765321;32;39282;-86
2022/11/27 10:07:02;;;;;;;30.30;15.35;;;;;;;7.95;64.49;101063.59;7765160;32;40568;-83
2022/11/27 10:11:27;;;;;;;33.58;13.88;;;;;;;8.33;63.34;101055.28;7764988;32;38525;-83
2022/11/27 10:15:55;;;;;;;32.65;14.90;;;;;;;8.23;63.64;101050.34;7764238;32;37144;-80
2022/11/27 10:20:45;;;;;;;34.38;16.62;;;;;;;8.37;63.33;101050.22;7751435;32;40111;-86
2022/11/27 10:25:16;;;;;;;34.40;16.10;;;;;;;8.15;63.59;101047.09;7753300;32;41264;-84
2022/11/27 10:29:45;;;;;;;32.75;16.00;;;;;;;7.84;64.41;101046.97;7751472;32;38776;-85
2022/11/27 10:34:23;;;;;;;33.97;15.82;;;;;;;7.83;64.62;101034.47;7764897;32;37035;-83
2022/11/27 10:38:40;;;;;;;33.70;14.75;;;;;;;8.01;64.21;101033.66;7764708;32;39063;-82
2022/11/27 10:43:07;;;;;;;35.13;15.23;;;;;;;8.39;62.48;101029.06;7764713;32;40487;-85
2022/11/27 10:47:24;;;;;;;33.58;13.90;;;;;;;8.45;62.78;101025.47;7764732;32;38768;-81
2022/11/27 10:51:47;;;;;;;32.80;14.80;;;;;;;8.57;62.13;101018.22;7747468;32;37899;-85
2022/11/27 10:56:14;;;;;;;37.17;14.63;;;;;;;8.56;62.64;101022.00;7764393;32;37505;-84
2022/11/27 11:00:30;;;;;;;33.08;14.98;;;;;;;8.78;62.47;101013.37;7764183;32;39759;-83
2022/11/27 11:04:47;;;;;;;30.55;14.27;;;;;;;8.28;64.07;101009.75;7750189;32;38803;-84
2022/11/27 11:09:23;;;;;;;34.60;14.35;;;;;;;8.65;62.87;100995.31;7763459;32;38522;-84
2022/11/27 11:13:46;;;;;;;34.17;15.13;;;;;;;8.63;62.84;100990.13;7763181;32;40222;-83
2022/11/27 11:18:02;;;;;;;38.25;15.48;;;;;;;8.80;62.34;100984.03;7762972;32;39634;-84
2022/11/27 11:22:19;;;;;;;36.85;15.98;;;;;;;8.69;62.47;100992.97;7763632;32;38035;-84
2022/11/27 11:26:47;;;;;;;42.83;17.52;;;;;;;8.90;61.45;100978.88;7763051;32;37928;-83
2022/11/27 11:31:08;;;;;;;45.50;17.67;;;;;;;8.79;62.14;100960.62;7763353;32;38250;-84
2022/11/27 11:35:27;;;;;;;38.92;16.77;;;;;;;8.91;62.36;100966.09;7767032;32;40818;-84
2022/11/27 11:39:53;;;;;;;41.80;17.35;;;;;;;8.86;62.94;100955.09;7766761;32;38069;-83
2022/11/27 11:44:28;;;;;;;38.47;16.87;;;;;;;9.00;62.51;100948.38;7766338;32;37960;-84
2022/11/27 11:49:03;;;;;;;41.50;19.10;;;;;;;8.72;63.66;100949.84;7754393;32;40153;-83
2022/11/27 11:53:37;;;;;;;38.40;18.42;;;;;;;8.60;63.63;100947.06;7765785;32;39955;-84
2022/11/27 11:58:09;;;;;;;40.45;17.65;;;;;;;8.58;63.91;100949.19;7766363;32;38042;-85
2022/11/27 12:02:37;;;;;;;42.88;17.48;;;;;;;8.78;62.83;100942.66;7766622;32;37573;-83
2022/11/27 12:06:54;;;;;;;42.25;17.75;;;;;;;8.96;62.17;100945.28;7766118;32;39938;-84
2022/11/27 12:11:14;;;;;;;45.55;18.20;;;;;;;8.74;63.27;100947.72;7765442;32;39682;-84
2022/11/27 12:15:56;;;;;;;46.90;19.77;;;;;;;8.83;62.85;100945.53;7766248;32;38766;-85
2022/11/27 12:20:19;;;;;;;40.78;18.05;;;;;;;8.42;64.34;100944.38;7755038;32;38006;-84
2022/11/27 12:24:58;;;;;;;43.28;18.85;;;;;;;8.41;64.86;100937.28;7764295;32;39015;-84
2022/11/27 12:29:40;;;;;;;36.90;17.65;;;;;;;8.83;63.19;100924.59;7765631;32;39673;-84
2022/11/27 12:34:24;;;;;;;37.03;17.10;;;;;;;8.52;64.51;100928.37;7736385;32;37918;-84
2022/11/27 12:38:59;;;;;;;36.38;17.27;;;;;;;8.77;63.04;100924.69;7737611;32;36875;-84
2022/11/27 12:43:27;;;;;;;35.67;16.58;;;;;;;8.47;64.36;100922.81;7753557;32;39382;-84
2022/11/27 12:47:57;;;;;;;42.17;18.73;;;;;;;8.54;64.18;100926.25;7766174;32;39822;-84
2022/11/27 12:52:19;;;;;;;34.58;18.17;;;;;;;8.83;62.74;100919.16;7766013;32;39020;-84
2022/11/27 12:56:41;;;;;;;34.60;16.08;;;;;;;8.60;63.49;100919.88;7752465;32;37203;-84
2022/11/27 13:01:06;;;;;;;39.83;16.73;;;;;;;8.97;62.29;100911.59;7766080;32;39386;-84
2022/11/27 13:05:27;;;;;;;34.50;15.95;;;;;;;8.93;62.39;100909.59;7752629;32;39943;-85
2022/11/27 13:10:08;;;;;;;33.72;14.45;;;;;;;8.69;63.10;100911.41;7765885;32;37951;-84
2022/11/27 13:14:26;;;;;;;33.40;15.63;;;;;;;8.52;63.47;100913.94;7765740;32;37319;-84
2022/11/27 13:19:09;;;;;;;30.85;12.82;;;;;;;9.02;62.05;100906.28;7752034;32;39337;-84
2022/11/27 13:23:29;;;;;;;28.00;13.27;;;;;;;8.79;62.63;100906.25;7756515;32;39882;-85
2022/11/27 13:27:48;;;;;;;30.98;14.57;;;;;;;8.97;62.02;100895.28;7765691;32;37806;-85
2022/11/27 13:32:06;;;;;;;34.10;14.13;;;;;;;9.17;61.26;100897.66;7752107;32;37156;-84
2022/11/27 13:36:26;;;;;;;27.73;13.55;;;;;;;9.10;61.31;100898.84;7765439;32;40185;-84
2022/11/27 13:40:50;;;;;;;35.15;15.10;;;;;;;8.98;61.43;100896.94;7765581;32;40185;-85
2022/11/27 13:45:17;;;;;;;30.35;14.82;;;;;;;8.77;62.37;100900.22;7765580;32;37948;-85
2022/11/27 13:49:37;;;;;;;30.73;15.23;;;;;;;8.56;63.09;100907.00;7752779;32;37188;-84
2022/11/27 13:54:05;;;;;;;30.08;13.85;;;;;;;8.26;64.30;100903.19;7765450;32;39127;-84
2022/11/27 13:58:33;;;;;;;27.05;13.23;;;;;;;8.58;63.31;100894.00;7765286;32;40859;-85
2022/11/27 14:02:50;;;;;;;28.48;13.02;;;;;;;8.68;63.04;100904.34;7765301;32;38813;-85
2022/11/27 14:07:10;;;;;;;31.90;13.77;;;;;;;8.49;63.62;100898.94;7765296;32;38195;-85
2022/11/27 14:11:41;;;;;;;29.35;12.85;;;;;;;8.71;62.88;100901.13;7765681;32;40171;-84
2022/11/27 14:16:02;;;;;;;31.10;13.35;;;;;;;8.72;62.66;100905.53;7765194;32;39904;-84
2022/11/27 14:20:24;;;;;;;30.77;13.23;;;;;;;8.80;62.68;100907.91;7751658;32;37968;-85
2022/11/27 14:24:45;;;;;;;29.42;13.98;;;;;;;8.40;63.80;100914.72;7751717;32;37221;-84
2022/11/27 14:29:02;;;;;;;29.12;12.60;;;;;;;8.44;63.68;100912.41;7765103;32;39149;-84
2022/11/27 14:33:21;;;;;;;29.45;13.75;;;;;;;8.47;63.70;100909.22;7764746;32;40606;-84
2022/11/27 14:37:38;;;;;;;32.28;13.98;;;;;;;8.27;64.21;100913.00;7756546;32;249308;-84
2022/11/27 14:42:02;;;;;;;34.45;14.13;;;;;;;8.76;62.58;100902.13;7764757;32;37773;-84
2022/11/27 14:46:20;;;;;;;27.10;13.48;;;;;;;8.87;62.08;100907.81;7764755;32;40135;-85
2022/11/27 14:50:37;;;;;;;28.48;13.32;;;;;;;8.43;63.26;100910.72;7764689;32;40866;-85
2022/11/27 14:54:53;;;;;;;32.88;14.48;;;;;;;8.37;63.43;100909.72;7750594;32;37942;-84
2022/11/27 14:59:16;;;;;;;33.33;14.85;;;;;;;8.74;62.14;100914.25;7750653;32;37816;-84
2022/11/27 15:03:33;;;;;;;32.73;14.33;;;;;;;8.42;63.09;100919.94;7751105;32;40016;-84
2022/11/27 15:07:51;;;;;;;28.77;13.38;;;;;;;8.37;63.16;100926.03;7763656;32;39965;-84
2022/11/27 15:12:16;;;;;;;31.27;14.15;;;;;;;8.69;62.27;100914.94;7764134;32;37682;-84
2022/11/27 15:16:32;;;;;;;31.60;15.30;;;;;;;8.60;62.38;100924.50;7764209;32;36200;-84
2022/11/27 15:20:49;;;;;;;34.03;14.48;;;;;;;8.64;62.35;100922.97;7750175;32;39412;-85
2022/11/27 15:25:07;;;;;;;31.98;14.57;;;;;;;8.50;62.45;100919.63;7749976;32;39889;-85
2022/11/27 15:29:36;;;;;;;30.95;15.15;;;;;;;8.18;63.80;100925.25;7763648;32;37925;-85
2022/11/27 15:34:23;;;;;;;30.02;14.57;;;;;;;8.44;62.71;100923.28;7750877;32;37192;-84
2022/11/27 15:38:40;;;;;;;30.95;14.93;;;;;;;8.23;63.47;100917.22;7735337;32;39251;-84
2022/11/27 15:42:56;;;;;;;29.65;14.50;;;;;;;8.22;64.00;100918.28;7736520;32;40002;-83
2022/11/27 15:47:32;;;;;;;33.83;15.98;;;;;;;8.39;63.35;100925.81;7736446;32;38057;-84
2022/11/27 15:51:49;;;;;;;32.45;13.23;;;;;;;8.35;63.36;100928.16;7736234;32;37324;-83
2022/11/27 15:56:06;;;;;;;33.10;15.15;;;;;;;8.44;62.87;100921.37;7735037;32;39469;-83
2022/11/27 16:00:22;;;;;;;30.70;15.07;;;;;;;8.31;63.43;100915.25;7736073;32;40629;-84
2022/11/27 16:04:38;;;;;;;28.58;15.48;;;;;;;8.44;62.92;100921.37;7735910;32;38036;-84
2022/11/27 16:08:57;;;;;;;34.72;14.65;;;;;;;8.57;61.99;100909.50;7735800;32;38078;-84
2022/11/27 16:13:13;;;;;;;30.88;14.73;;;;;;;8.39;62.83;100912.22;7735662;32;39988;-84
2022/11/27 16:17:29;;;;;;;34.45;15.98;;;;;;;8.38;62.72;100907.84;7735658;32;40065;-84
2022/11/27 16:21:46;;;;;;;31.12;15.00;;;;;;;8.34;63.13;100893.06;7738940;32;37789;-84
2022/11/27 16:26:03;;;;;;;32.60;16.30;;;;;;;8.46;62.54;100893.97;7739490;32;37235;-84
2022/11/27 16:30:19;;;;;;;32.85;15.18;;;;;;;8.19;63.34;100894.31;7739425;32;39322;-84
2022/11/27 16:34:35;;;;;;;31.00;13.93;;;;;;;8.34;63.04;100890.34;7739201;32;40808;-84
2022/11/27 16:38:53;;;;;;;27.35;13.15;;;;;;;8.19;63.34;100885.31;7757510;32;38553;-84
2022/11/27 16:43:09;;;;;;;26.55;13.23;;;;;;;7.95;64.31;100892.50;7766240;32;37932;-83
2022/11/27 16:47:26;;;;;;;27.77;12.05;;;;;;;8.11;63.80;100891.91;7766198;32;39803;-84
2022/11/27 16:51:48;;;;;;;28.45;14.18;;;;;;;8.11;63.69;100889.19;7765986;32;39908;-83
2022/11/27 16:56:06;;;;;;;31.60;14.60;;;;;;;8.03;64.13;100892.22;7766291;32;38085;-83
2022/11/27 17:00:22;;;;;;;24.40;12.52;;;;;;;7.98;64.03;100883.91;7765970;32;37257;-83
2022/11/27 17:04:39;;;;;;;24.12;12.00;;;;;;;8.09;63.53;100885.88;7752122;32;40119;-85
2022/11/27 17:08:57;;;;;;;24.87;11.52;;;;;;;7.84;64.62;100877.81;7765901;32;39987;-84
2022/11/27 17:13:13;;;;;;;21.02;11.05;;;;;;;8.23;62.92;100876.47;7765806;32;36928;-84
2022/11/27 17:17:30;;;;;;;22.20;11.38;;;;;;;8.24;63.10;100870.00;7765885;32;36873;-84
2022/11/27 17:21:54;;;;;;;21.08;11.48;;;;;;;7.93;63.76;100878.34;7765880;32;39270;-84
2022/11/27 17:26:12;;;;;;;22.90;11.65;;;;;;;8.39;62.17;100866.84;7765648;32;40842;-83
2022/11/27 17:30:29;;;;;;;24.45;11.12;;;;;;;7.85;63.88;100866.72;7765381;32;37146;-84
2022/11/27 17:34:51;;;;;;;20.67;11.05;;;;;;;8.10;63.08;100863.06;7765478;32;37199;-84
2022/11/27 17:39:09;;;;;;;21.62;11.27;;;;;;;8.08;62.99;100841.56;7765377;32;39406;-84
2022/11/27 17:43:26;;;;;;;26.92;13.55;;;;;;;8.11;62.88;100840.28;7764608;32;40139;-83
2022/11/27 17:47:43;;;;;;;23.48;11.43;;;;;;;8.16;63.00;100837.72;7764959;32;38824;-81
2022/11/27 17:51:59;;;;;;;19.65;9.32;;;;;;;8.19;62.86;100834.56;7764670;32;37411;-83
2022/11/27 17:56:21;;;;;;;22.70;11.15;;;;;;;8.28;62.25;100825.00;7765456;32;39360;-82
2022/11/27 18:00:38;;;;;;;24.33;10.10;;;;;;;8.17;62.58;100823.06;7765268;32;40781;-83
2022/11/27 18:04:55;;;;;;;21.00;8.50;;;;;;;7.82;63.74;100815.59;7764651;32;38242;-82
2022/11/27 18:09:11;;;;;;;17.42;8.95;;;;;;;7.89;63.20;100812.81;7765213;32;37272;-83
2022/11/27 18:13:31;;;;;;;22.20;10.35;;;;;;;7.95;62.77;100813.75;7764840;32;39363;-84
2022/11/27 18:17:47;;;;;;;18.05;9.57;;;;;;;7.61;63.73;100824.22;7764083;32;40744;-83
2022/11/27 18:22:03;;;;;;;21.17;10.75;;;;;;;7.24;65.02;100829.63;7764948;32;38851;-83
2022/11/27 18:26:21;;;;;;;20.20;10.07;;;;;;;7.82;63.27;100821.03;7765039;32;38227;-83
2022/11/27 18:31:02;;;;;;;19.83;10.10;;;;;;;7.75;63.52;100811.31;7764623;32;39731;-83
2022/11/27 18:35:18;;;;;;;22.67;10.60;;;;;;;7.78;63.31;100814.41;7764834;32;40102;-83
2022/11/27 18:39:35;;;;;;;21.73;10.55;;;;;;;7.59;64.40;100816.31;7764607;32;38764;-83
2022/11/27 18:43:51;;;;;;;22.25;11.48;;;;;;;7.82;63.14;100810.16;7750002;32;37971;-83
2022/11/27 18:48:08;;;;;;;18.42;10.57;;;;;;;7.55;64.18;100808.84;7750902;32;38945;-84
2022/11/27 18:52:24;;;;;;;22.65;11.05;;;;;;;7.53;64.47;100806.34;7764518;32;39617;-85
2022/11/27 18:56:40;;;;;;;23.52;11.23;;;;;;;7.62;64.15;100806.87;7764554;32;37912;-83
2022/11/27 19:00:56;;;;;;;21.23;10.35;;;;;;;7.60;64.31;100809.81;7764286;32;38057;-84
2022/11/27 19:05:13;;;;;;;24.30;12.57;;;;;;;7.50;64.41;100806.78;7764128;32;39971;-84
2022/11/27 19:09:29;;;;;;;25.67;12.23;;;;;;;7.98;63.01;100822.28;7750027;32;40652;-84
2022/11/27 19:13:45;;;;;;;27.92;11.63;;;;;;;7.99;62.37;100821.22;7763592;32;38528;-85
2022/11/27 19:18:02;;;;;;;19.15;10.52;;;;;;;7.65;63.87;100814.56;7763763;32;38420;-84
2022/11/27 19:22:19;;;;;;;22.25;10.70;;;;;;;7.63;64.30;100819.41;7763701;32;39923;-84
2022/11/27 19:26:36;;;;;;;22.92;11.02;;;;;;;7.76;63.89;100821.97;7763686;32;40010;-84
2022/11/27 19:30:52;;;;;;;20.50;11.30;;;;;;;7.57;64.05;100828.44;7763516;32;38838;-83
2022/11/27 19:35:09;;;;;;;23.55;11.40;;;;;;;7.61;64.27;100824.22;7763426;32;35757;-82
2022/11/27 19:39:26;;;;;;;20.37;11.48;;;;;;;7.67;63.93;100823.31;7763082;32;40076;-82
2022/11/27 19:43:42;;;;;;;23.62;10.88;;;;;;;7.36;64.77;100827.81;7763082;32;39677;-83
2022/11/27 19:47:58;;;;;;;24.05;12.10;;;;;;;7.54;64.46;100832.44;7763142;32;38797;-84
2022/11/27 19:52:15;;;;;;;27.25;12.85;;;;;;;7.71;64.14;100825.34;7763596;32;35459;-84
2022/11/27 19:56:33;;;;;;;26.10;13.45;;;;;;;7.85;63.58;100820.56;7752682;32;40152;-82